Weather at Milton (Afi) Heliport

Public forecast

Using degrees Celsius for public forecast. Weather courtesy of forecast.io.

Closest aviation weather report (METAR) to Milton (Afi) Heliport

Closest report is Toronto Lester B. Pearson International Airport, 14.7 nm (27.2 km) NE.

2024/05/20 11:00 (retrieved 33 minutes ago)

CYYZ 201100Z 34004KT 15SM FEW065 BKN250 17/11 A2999 RMK SC1CI6 SLP156 DENSITY ALT 900FT

Closest aviation forecast (TAF) to Milton (Afi) Heliport

Closest forecast is Toronto Lester B. Pearson International Airport, 14.7 nm (27.2 km) NE.

2024/05/20 09:42 (retrieved 2 hours ago)

TAF CYYZ 200840Z 2009/2112 30005KT P6SM FEW050 BECMG 2013/2015 16007KT FM202000 17010KT P6SM BKN060 FM202300 17005KT P6SM SCT060 BECMG 2101/2103 VRB03KT FM210500 VRB03KT P6SM BKN070 RMK NXT FCST BY 201200Z